Time;durP1;ratioP1;P1;durP2;ratioP2;P2;SDS_P1;SDS_P2;PMS_P1;PMS_P2;Temp;Humidity;BMP_temperature;BMP_pressure;BME280_temperature;BME280_humidity;BME280_pressure;Samples;Min_cycle;Max_cycle;Signal;HPM_P1;HPM_P2
2023/03/21 00:02:10;;;;;;;18.45;9.88;;;;;;;;;;5051411;28;20103;-68
2023/03/21 00:04:36;;;;;;;18.80;10.73;;;;;;;;;;5051069;28;20458;-70
2023/03/21 00:07:01;;;;;;;19.33;9.27;;;;;;;;;;5051116;28;20056;-68
2023/03/21 00:09:26;;;;;;;14.18;7.50;;;;;;;;;;5051076;28;20123;-69
2023/03/21 00:11:51;;;;;;;14.68;8.27;;;;;;;;;;5051168;28;20021;-68
2023/03/21 00:14:19;;;;;;;13.02;7.10;;;;;;;;;;5050796;28;20009;-70
2023/03/21 00:16:49;;;;;;;24.60;6.75;;;;;;;;;;5050609;28;20021;-67
2023/03/21 00:19:14;;;;;;;15.52;6.15;;;;;;;;;;5050583;28;20040;-70
2023/03/21 00:21:41;;;;;;;10.60;5.32;;;;;;;;;;5050824;28;20013;-71
2023/03/21 00:24:07;;;;;;;12.32;5.53;;;;;;;;;;5050987;28;20017;-69
2023/03/21 00:26:32;;;;;;;10.98;5.45;;;;;;;;;;5050622;28;20524;-71
2023/03/21 00:28:57;;;;;;;11.70;4.95;;;;;;;;;;5049959;28;20027;-69
2023/03/21 00:31:22;;;;;;;12.43;5.38;;;;;;;;;;5050631;28;20624;-69
2023/03/21 00:33:48;;;;;;;10.75;4.57;;;;;;;;;;5050304;28;20383;-69
2023/03/21 00:36:14;;;;;;;11.50;4.78;;;;;;;;;;5050335;28;20112;-69
2023/03/21 00:38:40;;;;;;;8.07;4.57;;;;;;;;;;5050401;28;20013;-69
2023/03/21 00:41:07;;;;;;;11.60;5.13;;;;;;;;;;5047743;28;20013;-68
2023/03/21 00:43:32;;;;;;;13.18;4.78;;;;;;;;;;5046362;28;20518;-71
2023/03/21 00:45:58;;;;;;;12.23;4.57;;;;;;;;;;5049241;28;20028;-70
2023/03/21 00:48:24;;;;;;;11.07;3.88;;;;;;;;;;5049758;28;20021;-71
2023/03/21 00:50:51;;;;;;;9.82;4.05;;;;;;;;;;5050557;28;20024;-70
2023/03/21 00:53:16;;;;;;;8.88;4.43;;;;;;;;;;5050524;28;20483;-70
2023/03/21 00:55:42;;;;;;;9.13;4.32;;;;;;;;;;5050034;28;20031;-70
2023/03/21 00:58:07;;;;;;;8.02;4.32;;;;;;;;;;5049625;28;20367;-70
2023/03/21 01:00:35;;;;;;;10.93;5.93;;;;;;;;;;5062032;28;20040;-70
2023/03/21 01:03:04;;;;;;;9.32;4.97;;;;;;;;;;5069549;28;20017;-68
2023/03/21 01:08:28;;;;;;;15.15;8.80;;;;;;;;;;5043252;28;20490;-70
2023/03/21 01:10:54;;;;;;;12.20;6.78;;;;;;;;;;5068621;28;20027;-70
2023/03/21 01:13:21;;;;;;;17.52;7.88;;;;;;;;;;5069337;28;20061;-69
2023/03/21 01:15:51;;;;;;;14.60;7.57;;;;;;;;;;5069526;28;20017;-69
2023/03/21 01:18:17;;;;;;;18.55;8.75;;;;;;;;;;5068944;28;20021;-69
2023/03/21 01:20:43;;;;;;;14.63;7.88;;;;;;;;;;5069398;28;20025;-70
2023/03/21 01:23:09;;;;;;;16.58;8.45;;;;;;;;;;5069648;28;20016;-70
2023/03/21 01:25:34;;;;;;;20.60;7.07;;;;;;;;;;5069411;28;20027;-70
2023/03/21 01:27:59;;;;;;;16.60;8.18;;;;;;;;;;5068963;28;20032;-69
2023/03/21 01:30:24;;;;;;;14.73;8.15;;;;;;;;;;5069513;28;20031;-71
2023/03/21 01:32:50;;;;;;;13.52;7.18;;;;;;;;;;5069122;28;20040;-70
2023/03/21 01:35:15;;;;;;;14.15;7.07;;;;;;;;;;5067908;28;20036;-70
2023/03/21 01:37:40;;;;;;;13.43;7.50;;;;;;;;;;5068894;28;20016;-70
2023/03/21 01:40:11;;;;;;;12.45;7.80;;;;;;;;;;5066326;28;20070;-70
2023/03/21 01:42:37;;;;;;;14.15;7.20;;;;;;;;;;5069124;28;20474;-70
2023/03/21 01:45:04;;;;;;;15.13;7.32;;;;;;;;;;5063920;28;20043;-70
2023/03/21 01:47:30;;;;;;;15.80;8.10;;;;;;;;;;5068828;28;20104;-70
2023/03/21 01:49:58;;;;;;;13.88;7.30;;;;;;;;;;5068831;28;20111;-71
2023/03/21 01:52:26;;;;;;;13.77;7.83;;;;;;;;;;5069419;28;20060;-71
2023/03/21 01:54:53;;;;;;;20.60;8.25;;;;;;;;;;5069365;28;20257;-71
2023/03/21 01:57:22;;;;;;;12.30;6.65;;;;;;;;;;5067513;28;20032;-71
2023/03/21 01:59:49;;;;;;;12.63;6.15;;;;;;;;;;5068758;28;20024;-69
2023/03/21 02:02:19;;;;;;;13.43;6.43;;;;;;;;;;5069295;28;20410;-69
2023/03/21 02:04:49;;;;;;;16.52;6.13;;;;;;;;;;5068590;28;20093;-70
2023/03/21 02:07:16;;;;;;;13.45;6.55;;;;;;;;;;5056197;28;20143;-71
2023/03/21 02:09:45;;;;;;;13.27;6.53;;;;;;;;;;5068714;28;20039;-69
2023/03/21 02:12:10;;;;;;;10.60;5.43;;;;;;;;;;5069153;28;20089;-70
2023/03/21 02:14:37;;;;;;;10.40;5.20;;;;;;;;;;5068957;28;20099;-71
2023/03/21 02:17:07;;;;;;;15.98;5.65;;;;;;;;;;5068735;28;20055;-68
2023/03/21 02:19:33;;;;;;;11.05;5.32;;;;;;;;;;5068624;28;20023;-70
2023/03/21 02:22:09;;;;;;;16.17;5.70;;;;;;;;;;5069562;28;20020;-69
2023/03/21 02:24:37;;;;;;;11.70;6.03;;;;;;;;;;5072364;28;20024;-69
2023/03/21 02:27:20;;;;;;;11.63;6.22;;;;;;;;;;5072626;28;20017;-71
2023/03/21 02:29:49;;;;;;;12.23;5.80;;;;;;;;;;5072851;28;20029;-71
2023/03/21 02:32:14;;;;;;;13.32;5.07;;;;;;;;;;5073657;28;20016;-69
2023/03/21 02:35:03;;;;;;;10.93;5.43;;;;;;;;;;5072398;28;20038;-71
2023/03/21 02:37:31;;;;;;;13.80;5.38;;;;;;;;;;5035010;28;20281;-70
2023/03/21 02:39:56;;;;;;;12.88;5.32;;;;;;;;;;5070167;28;20019;-69
2023/03/21 02:42:34;;;;;;;12.93;5.68;;;;;;;;;;5072562;28;20012;-69
2023/03/21 02:45:05;;;;;;;12.85;5.00;;;;;;;;;;5072835;28;20030;-69
2023/03/21 02:47:30;;;;;;;10.27;4.57;;;;;;;;;;5072631;28;20024;-70
2023/03/21 02:50:19;;;;;;;10.03;5.33;;;;;;;;;;5072538;28;20021;-69
2023/03/21 02:52:45;;;;;;;12.75;5.53;;;;;;;;;;5040860;28;20798;-70
2023/03/21 02:55:17;;;;;;;11.30;5.53;;;;;;;;;;5072738;28;20490;-69
2023/03/21 02:57:43;;;;;;;13.38;5.43;;;;;;;;;;5072651;28;20020;-70
2023/03/21 03:00:11;;;;;;;12.20;4.78;;;;;;;;;;5072216;28;20028;-71
2023/03/21 03:02:38;;;;;;;13.93;5.97;;;;;;;;;;5072657;28;20461;-70
2023/03/21 03:05:33;;;;;;;11.15;5.00;;;;;;;;;;5071575;28;20075;-69
2023/03/21 03:08:04;;;;;;;12.52;5.15;;;;;;;;;;5058296;28;20043;-71
2023/03/21 03:10:29;;;;;;;12.40;4.97;;;;;;;;;;5058724;28;20031;-70
2023/03/21 03:13:03;;;;;;;13.18;5.45;;;;;;;;;;5072464;28;20016;-70
2023/03/21 03:15:50;;;;;;;15.40;5.82;;;;;;;;;;5059842;28;20036;-69
2023/03/21 03:18:18;;;;;;;13.00;6.05;;;;;;;;;;5071775;28;20017;-71
2023/03/21 03:20:49;;;;;;;18.63;6.78;;;;;;;;;;5071581;28;20027;-70
2023/03/21 03:23:17;;;;;;;16.52;6.57;;;;;;;;;;5071954;28;20029;-70
2023/03/21 03:25:48;;;;;;;15.20;6.25;;;;;;;;;;5071811;28;20548;-71
2023/03/21 03:28:15;;;;;;;12.95;6.68;;;;;;;;;;5071645;28;20032;-69
2023/03/21 03:30:40;;;;;;;19.92;6.68;;;;;;;;;;5071850;28;20035;-70
2023/03/21 03:33:08;;;;;;;13.95;6.63;;;;;;;;;;5071148;28;20386;-71
2023/03/21 03:35:33;;;;;;;17.80;6.90;;;;;;;;;;5070906;28;20025;-69
2023/03/21 03:38:00;;;;;;;14.43;7.03;;;;;;;;;;5071189;28;20060;-70
2023/03/21 03:40:25;;;;;;;13.35;6.07;;;;;;;;;;5068432;28;20036;-71
2023/03/21 03:42:57;;;;;;;16.40;5.90;;;;;;;;;;5071139;28;20055;-72
2023/03/21 03:45:38;;;;;;;13.70;5.53;;;;;;;;;;5070912;28;20012;-71
2023/03/21 03:48:04;;;;;;;12.52;5.82;;;;;;;;;;5069676;28;20406;-71
2023/03/21 03:50:40;;;;;;;9.60;5.32;;;;;;;;;;5070636;28;20038;-70
2023/03/21 03:53:20;;;;;;;11.35;4.70;;;;;;;;;;5071924;28;20384;-72
2023/03/21 03:55:46;;;;;;;10.95;5.13;;;;;;;;;;5071333;28;20028;-70
2023/03/21 03:58:11;;;;;;;12.02;5.78;;;;;;;;;;5070763;28;20020;-71
2023/03/21 04:00:38;;;;;;;10.07;5.20;;;;;;;;;;5070993;28;20020;-72
2023/03/21 04:03:05;;;;;;;10.63;4.72;;;;;;;;;;5071392;28;20107;-70
2023/03/21 04:05:31;;;;;;;15.77;5.18;;;;;;;;;;5070455;28;20048;-70
2023/03/21 04:07:56;;;;;;;10.00;4.68;;;;;;;;;;5070906;28;20503;-71
2023/03/21 04:10:22;;;;;;;8.93;4.72;;;;;;;;;;5070830;28;20028;-70
2023/03/21 04:12:47;;;;;;;10.40;5.53;;;;;;;;;;5071119;28;20059;-71
2023/03/21 04:15:12;;;;;;;9.60;4.95;;;;;;;;;;5070876;28;20021;-69
2023/03/21 04:17:41;;;;;;;12.18;5.10;;;;;;;;;;5070482;28;20116;-69
2023/03/21 04:20:07;;;;;;;15.55;5.45;;;;;;;;;;5069919;28;20024;-71
2023/03/21 04:22:33;;;;;;;14.13;5.22;;;;;;;;;;5070889;28;20034;-71
2023/03/21 04:25:03;;;;;;;15.85;6.07;;;;;;;;;;5070422;28;20103;-71
2023/03/21 04:27:29;;;;;;;11.32;4.60;;;;;;;;;;5070286;28;20025;-71
2023/03/21 04:29:55;;;;;;;14.00;4.93;;;;;;;;;;5069192;28;20047;-70
2023/03/21 04:32:23;;;;;;;12.35;4.97;;;;;;;;;;5071028;28;20458;-70
2023/03/21 04:34:53;;;;;;;14.07;5.28;;;;;;;;;;5070206;28;20028;-71
2023/03/21 04:37:18;;;;;;;11.85;5.43;;;;;;;;;;5070014;28;20028;-70
2023/03/21 04:39:46;;;;;;;16.75;5.05;;;;;;;;;;5067835;28;20025;-68
2023/03/21 04:42:13;;;;;;;14.88;5.43;;;;;;;;;;5064661;28;20020;-70
2023/03/21 04:44:38;;;;;;;12.35;5.07;;;;;;;;;;5068512;28;20629;-72
2023/03/21 04:47:03;;;;;;;10.27;5.38;;;;;;;;;;5069591;28;20104;-71
2023/03/21 04:49:29;;;;;;;12.70;5.05;;;;;;;;;;5070212;28;20008;-70
2023/03/21 04:51:55;;;;;;;11.18;5.25;;;;;;;;;;5069082;28;20468;-71
2023/03/21 04:54:20;;;;;;;15.48;7.45;;;;;;;;;;5070037;28;20392;-71
2023/03/21 04:56:45;;;;;;;18.08;9.02;;;;;;;;;;5070114;28;20532;-70
2023/03/21 04:59:11;;;;;;;12.90;6.55;;;;;;;;;;5070093;28;20040;-69
2023/03/21 05:01:37;;;;;;;13.00;6.65;;;;;;;;;;5098858;22;20048;-65
2023/03/21 05:04:03;;;;;;;26.10;11.23;;;;;;;;;;5088969;28;20031;-63
2023/03/21 05:06:28;;;;;;;21.85;9.10;;;;;;;;;;5088376;28;20041;-64
2023/03/21 05:08:55;;;;;;;20.30;9.90;;;;;;;;;;5088420;28;20493;-66
2023/03/21 05:11:21;;;;;;;24.00;10.68;;;;;;;;;;5065830;28;20024;-66
2023/03/21 05:13:46;;;;;;;20.67;8.80;;;;;;;;;;5066138;28;20383;-66
2023/03/21 05:16:11;;;;;;;21.20;9.68;;;;;;;;;;5064395;28;20035;-67
2023/03/21 05:18:37;;;;;;;16.65;7.43;;;;;;;;;;5062089;28;20028;-68
2023/03/21 05:21:03;;;;;;;16.77;6.30;;;;;;;;;;5058042;28;20012;-68
2023/03/21 05:23:30;;;;;;;13.70;6.38;;;;;;;;;;5081108;28;20103;-66
2023/03/21 05:25:55;;;;;;;14.50;6.13;;;;;;;;;;5052659;28;20088;-66
2023/03/21 05:28:20;;;;;;;17.08;6.22;;;;;;;;;;5068226;28;20024;-65
2023/03/21 05:30:46;;;;;;;13.05;4.90;;;;;;;;;;5055861;28;20025;-67
2023/03/21 05:33:11;;;;;;;10.40;4.65;;;;;;;;;;5048636;28;20017;-67
2023/03/21 05:35:37;;;;;;;9.80;4.55;;;;;;;;;;5048665;28;20031;-66
2023/03/21 05:38:02;;;;;;;12.20;4.93;;;;;;;;;;5051211;28;20032;-66
2023/03/21 05:40:27;;;;;;;18.33;5.18;;;;;;;;;;5055823;28;20021;-65
2023/03/21 05:42:52;;;;;;;11.40;4.82;;;;;;;;;;5067811;28;20078;-67
2023/03/21 05:45:18;;;;;;;16.65;4.93;;;;;;;;;;5055719;28;20096;-65
2023/03/21 05:47:43;;;;;;;12.95;5.38;;;;;;;;;;5058472;28;20028;-67
2023/03/21 05:50:09;;;;;;;12.20;4.57;;;;;;;;;;5053353;28;20128;-65
2023/03/21 05:52:35;;;;;;;9.73;4.68;;;;;;;;;;5055521;28;20035;-66
2023/03/21 05:55:01;;;;;;;8.65;4.18;;;;;;;;;;5056055;28;20033;-66
2023/03/21 05:57:31;;;;;;;14.00;4.82;;;;;;;;;;5057815;28;20029;-66
2023/03/21 06:00:00;;;;;;;13.65;4.57;;;;;;;;;;5058531;28;20032;-65
2023/03/21 06:02:26;;;;;;;11.10;4.57;;;;;;;;;;5057273;28;20486;-65
2023/03/21 06:04:51;;;;;;;9.68;4.45;;;;;;;;;;5059625;28;20101;-65
2023/03/21 06:07:17;;;;;;;14.68;4.40;;;;;;;;;;5057447;28;20025;-67
2023/03/21 06:09:42;;;;;;;14.18;4.82;;;;;;;;;;5058663;28;20249;-67
2023/03/21 06:12:07;;;;;;;12.80;4.53;;;;;;;;;;5057593;28;20048;-65
2023/03/21 06:14:32;;;;;;;15.73;5.05;;;;;;;;;;5059973;28;20144;-66
2023/03/21 06:16:58;;;;;;;14.63;4.95;;;;;;;;;;5058447;28;20063;-65
2023/03/21 06:19:23;;;;;;;12.73;4.55;;;;;;;;;;5058883;28;20533;-67
2023/03/21 06:21:49;;;;;;;12.85;4.40;;;;;;;;;;5060235;28;20016;-68
2023/03/21 06:24:14;;;;;;;12.05;3.80;;;;;;;;;;5058844;28;20859;-66
2023/03/21 06:26:41;;;;;;;8.02;3.85;;;;;;;;;;5058327;28;20050;-67
2023/03/21 06:29:07;;;;;;;9.07;4.00;;;;;;;;;;5057561;28;20097;-65
2023/03/21 06:31:32;;;;;;;13.77;4.55;;;;;;;;;;5055599;28;20020;-69
2023/03/21 06:33:57;;;;;;;15.30;4.13;;;;;;;;;;5057949;28;20119;-65
2023/03/21 06:36:22;;;;;;;10.55;4.38;;;;;;;;;;5060516;28;20041;-67
2023/03/21 06:38:48;;;;;;;12.15;4.30;;;;;;;;;;5058856;28;20090;-67
2023/03/21 06:41:13;;;;;;;19.13;6.07;;;;;;;;;;5056212;28;20054;-67
2023/03/21 06:43:39;;;;;;;19.15;4.57;;;;;;;;;;5064093;28;20017;-64
2023/03/21 06:46:04;;;;;;;20.77;5.20;;;;;;;;;;5060054;28;20443;-66
2023/03/21 06:48:30;;;;;;;12.73;4.72;;;;;;;;;;5058800;28;20044;-69
2023/03/21 06:50:55;;;;;;;11.25;3.88;;;;;;;;;;5065678;28;20024;-65
2023/03/21 06:53:23;;;;;;;20.45;4.25;;;;;;;;;;5064867;28;20024;-66
2023/03/21 06:55:55;;;;;;;18.30;4.97;;;;;;;;;;5072093;28;20086;-66
2023/03/21 06:58:20;;;;;;;13.57;4.38;;;;;;;;;;5069254;28;20040;-68
2023/03/21 07:00:46;;;;;;;13.05;3.88;;;;;;;;;;5069346;28;20021;-66
2023/03/21 07:03:12;;;;;;;8.30;3.92;;;;;;;;;;5062478;28;20101;-66
2023/03/21 07:05:38;;;;;;;10.10;3.67;;;;;;;;;;5060445;28;20025;-64
2023/03/21 07:08:03;;;;;;;12.63;3.67;;;;;;;;;;5064070;28;20025;-68
2023/03/21 07:10:28;;;;;;;14.93;4.60;;;;;;;;;;5065662;28;20489;-67
2023/03/21 07:12:54;;;;;;;9.75;3.92;;;;;;;;;;5061278;28;20534;-67
2023/03/21 07:15:22;;;;;;;10.00;3.75;;;;;;;;;;5059051;28;20021;-67
2023/03/21 07:17:51;;;;;;;11.98;3.72;;;;;;;;;;5063632;28;20131;-65
2023/03/21 07:20:16;;;;;;;;;;;;;;;;;;5059339;28;20084;-64
2023/03/21 07:22:41;;;;;;;10.15;4.35;;;;;;;;;;5066812;28;20043;-66
2023/03/21 07:25:10;;;;;;;9.70;3.38;;;;;;;;;;5066359;28;20016;-66
2023/03/21 07:27:39;;;;;;;11.90;4.93;;;;;;;;;;5070136;28;20039;-68
2023/03/21 07:30:05;;;;;;;9.98;4.13;;;;;;;;;;5065011;28;20105;-68
2023/03/21 07:32:32;;;;;;;16.33;3.90;;;;;;;;;;5067564;28;20044;-65
2023/03/21 07:34:57;;;;;;;16.80;4.00;;;;;;;;;;5057459;28;20089;-64
2023/03/21 07:37:23;;;;;;;16.35;4.88;;;;;;;;;;5069855;28;20056;-67
2023/03/21 07:39:48;;;;;;;13.63;4.47;;;;;;;;;;5058798;28;20028;-65
2023/03/21 07:42:13;;;;;;;10.88;4.10;;;;;;;;;;5050764;28;20024;-67
2023/03/21 07:44:39;;;;;;;10.23;3.85;;;;;;;;;;5064435;28;20051;-67
2023/03/21 07:47:04;;;;;;;9.93;3.90;;;;;;;;;;5061228;28;20040;-67
2023/03/21 07:49:30;;;;;;;17.50;4.60;;;;;;;;;;5054136;28;20550;-64
2023/03/21 07:51:55;;;;;;;17.83;4.55;;;;;;;;;;5068827;28;20032;-68
2023/03/21 07:54:21;;;;;;;22.25;6.72;;;;;;;;;;5061148;28;20024;-66
2023/03/21 07:56:47;;;;;;;29.50;9.05;;;;;;;;;;5057966;28;20090;-66
2023/03/21 07:59:12;;;;;;;10.82;3.83;;;;;;;;;;5059023;28;20191;-67
2023/03/21 08:01:37;;;;;;;39.95;10.65;;;;;;;;;;5057765;28;20124;-66
2023/03/21 08:04:02;;;;;;;20.95;6.95;;;;;;;;;;5059442;28;20143;-68
2023/03/21 08:06:31;;;;;;;14.68;5.28;;;;;;;;;;5057956;28;20061;-64
2023/03/21 08:08:56;;;;;;;10.60;3.75;;;;;;;;;;5055629;28;20063;-64
2023/03/21 08:11:22;;;;;;;17.00;4.30;;;;;;;;;;5053668;28;20094;-66
2023/03/21 08:13:48;;;;;;;12.73;3.10;;;;;;;;;;5057281;28;20024;-65
2023/03/21 08:16:13;;;;;;;13.25;3.75;;;;;;;;;;5058068;28;20117;-65
2023/03/21 08:18:38;;;;;;;7.85;3.15;;;;;;;;;;5057645;28;20027;-67
2023/03/21 08:21:04;;;;;;;9.77;3.95;;;;;;;;;;5053826;28;20031;-65
2023/03/21 08:23:29;;;;;;;11.73;3.83;;;;;;;;;;5057439;28;20051;-65
2023/03/21 08:25:55;;;;;;;11.20;3.90;;;;;;;;;;5056173;28;20021;-65
2023/03/21 08:28:20;;;;;;;14.18;3.22;;;;;;;;;;5056543;28;20028;-64
2023/03/21 08:30:46;;;;;;;7.78;3.30;;;;;;;;;;5055792;28;20029;-65
2023/03/21 08:33:12;;;;;;;11.25;3.97;;;;;;;;;;5057724;28;20142;-65
2023/03/21 08:35:38;;;;;;;9.65;3.28;;;;;;;;;;5057125;28;20056;-67
2023/03/21 08:38:03;;;;;;;15.90;3.13;;;;;;;;;;5057241;28;20459;-65
2023/03/21 08:40:28;;;;;;;8.90;3.17;;;;;;;;;;5055494;28;20666;-66
2023/03/21 08:42:54;;;;;;;10.38;3.28;;;;;;;;;;5057651;28;20039;-65
2023/03/21 08:45:19;;;;;;;9.18;2.95;;;;;;;;;;5056527;28;21527;-66
2023/03/21 08:47:45;;;;;;;10.52;3.22;;;;;;;;;;5058862;28;20024;-66
2023/03/21 08:50:12;;;;;;;8.43;3.65;;;;;;;;;;5055064;28;20039;-64
2023/03/21 08:52:37;;;;;;;12.82;3.33;;;;;;;;;;5055418;28;20028;-65
2023/03/21 08:55:03;;;;;;;15.88;4.05;;;;;;;;;;5057148;28;20024;-65
2023/03/21 08:57:28;;;;;;;13.82;4.68;;;;;;;;;;5055679;28;20059;-68
2023/03/21 08:59:54;;;;;;;18.98;5.03;;;;;;;;;;5055603;28;20020;-64
2023/03/21 09:02:19;;;;;;;17.05;4.28;;;;;;;;;;5056404;28;20419;-67
2023/03/21 09:04:45;;;;;;;8.15;3.65;;;;;;;;;;5055399;28;20059;-64
2023/03/21 09:07:11;;;;;;;9.45;3.47;;;;;;;;;;5056432;28;20025;-65
2023/03/21 09:09:37;;;;;;;7.72;3.15;;;;;;;;;;5057341;28;21224;-67
2023/03/21 09:12:02;;;;;;;14.95;4.10;;;;;;;;;;5055091;28;20028;-65
2023/03/21 09:14:27;;;;;;;11.55;3.38;;;;;;;;;;5056214;28;20382;-65
2023/03/21 09:16:53;;;;;;;9.98;3.42;;;;;;;;;;5056040;28;20490;-67
2023/03/21 09:19:18;;;;;;;13.95;3.50;;;;;;;;;;5056865;28;20024;-64
2023/03/21 09:21:44;;;;;;;15.30;3.80;;;;;;;;;;5055704;28;20040;-66
2023/03/21 09:24:11;;;;;;;7.32;3.30;;;;;;;;;;5056900;28;20028;-66
2023/03/21 09:26:37;;;;;;;14.25;4.68;;;;;;;;;;5052802;28;20093;-65
2023/03/21 09:29:04;;;;;;;11.90;3.63;;;;;;;;;;5055641;28;20033;-67
2023/03/21 09:31:32;;;;;;;12.98;4.38;;;;;;;;;;5054823;28;20706;-65
2023/03/21 09:33:58;;;;;;;9.68;4.00;;;;;;;;;;5056557;28;20017;-64
2023/03/21 09:36:25;;;;;;;13.35;4.32;;;;;;;;;;5056152;28;20058;-64
2023/03/21 09:38:51;;;;;;;10.82;3.42;;;;;;;;;;5056330;28;20028;-66
2023/03/21 09:41:23;;;;;;;14.20;3.28;;;;;;;;;;5055448;28;20024;-63
2023/03/21 09:43:51;;;;;;;9.15;3.53;;;;;;;;;;5056531;28;20034;-66
2023/03/21 09:46:22;;;;;;;8.65;3.15;;;;;;;;;;5054848;28;20139;-66
2023/03/21 09:48:59;;;;;;;12.98;4.10;;;;;;;;;;5057194;28;20086;-67
2023/03/21 09:51:27;;;;;;;11.27;4.03;;;;;;;;;;5055341;28;20028;-66
2023/03/21 09:53:54;;;;;;;12.63;3.50;;;;;;;;;;5054334;28;20096;-66
2023/03/21 09:56:20;;;;;;;16.83;4.18;;;;;;;;;;5056507;28;20028;-66
2023/03/21 09:58:51;;;;;;;17.38;3.95;;;;;;;;;;5055577;28;20025;-67
2023/03/21 10:01:27;;;;;;;9.13;3.78;;;;;;;;;;5056903;28;20150;-67
2023/03/21 10:03:53;;;;;;;9.85;3.85;;;;;;;;;;5057825;28;20032;-66
2023/03/21 10:06:20;;;;;;;10.32;4.05;;;;;;;;;;5054562;28;20090;-66
2023/03/21 10:08:46;;;;;;;10.55;2.95;;;;;;;;;;5058235;28;20088;-66
2023/03/21 10:11:15;;;;;;;13.63;3.88;;;;;;;;;;5058024;28;20252;-64
2023/03/21 10:13:40;;;;;;;;;;;;;;;;;;5055265;28;20054;-66
2023/03/21 10:16:13;;;;;;;9.57;3.67;;;;;;;;;;5056749;28;19913;-65
2023/03/21 10:18:40;;;;;;;9.52;3.60;;;;;;;;;;5055479;28;20749;-66
2023/03/21 10:21:06;;;;;;;8.20;3.50;;;;;;;;;;5053214;28;20242;-66
2023/03/21 10:23:31;;;;;;;9.70;3.25;;;;;;;;;;5056779;28;20032;-64
2023/03/21 10:25:58;;;;;;;8.85;3.80;;;;;;;;;;5055376;28;20665;-64
2023/03/21 10:28:25;;;;;;;7.82;3.35;;;;;;;;;;5054232;28;20512;-66
2023/03/21 10:30:52;;;;;;;7.85;3.53;;;;;;;;;;5053469;28;21437;-65
2023/03/21 10:33:23;;;;;;;12.30;3.72;;;;;;;;;;5057255;28;20032;-65
2023/03/21 10:35:50;;;;;;;6.88;3.47;;;;;;;;;;5055757;28;20024;-66
2023/03/21 10:38:17;;;;;;;13.75;4.95;;;;;;;;;;5054114;28;20024;-65
2023/03/21 10:40:43;;;;;;;7.97;3.53;;;;;;;;;;5054911;28;20051;-66
2023/03/21 10:43:26;;;;;;;13.73;4.47;;;;;;;;;;5057039;28;20059;-67
2023/03/21 10:45:52;;;;;;;7.63;3.33;;;;;;;;;;5058118;28;20025;-65
2023/03/21 10:48:17;;;;;;;7.75;3.60;;;;;;;;;;5058219;28;20045;-67
2023/03/21 10:50:45;;;;;;;12.38;4.25;;;;;;;;;;5057210;28;21137;-65
2023/03/21 10:53:16;;;;;;;11.98;3.65;;;;;;;;;;5059955;28;20032;-65
2023/03/21 10:55:42;;;;;;;12.27;3.88;;;;;;;;;;5058183;28;20062;-67
2023/03/21 10:58:09;;;;;;;8.32;3.17;;;;;;;;;;5057887;28;20032;-68
2023/03/21 11:00:37;;;;;;;9.80;3.80;;;;;;;;;;5069272;22;20017;-70
2023/03/21 11:03:03;;;;;;;11.10;3.88;;;;;;;;;;5068396;28;20458;-71
2023/03/21 11:05:37;;;;;;;10.77;4.18;;;;;;;;;;5069780;28;20113;-68
2023/03/21 11:08:03;;;;;;;12.90;4.43;;;;;;;;;;5067592;28;20024;-68
2023/03/21 11:10:30;;;;;;;8.95;3.67;;;;;;;;;;5069898;28;20034;-69
2023/03/21 11:12:56;;;;;;;12.77;4.28;;;;;;;;;;5050249;28;20040;-69
2023/03/21 11:15:31;;;;;;;14.20;4.75;;;;;;;;;;5065177;28;20036;-70
2023/03/21 11:17:59;;;;;;;9.73;4.22;;;;;;;;;;5064388;28;20108;-71
2023/03/21 11:20:25;;;;;;;12.52;5.25;;;;;;;;;;5070702;28;20028;-71
2023/03/21 11:22:53;;;;;;;17.13;4.65;;;;;;;;;;5066002;28;20032;-69
2023/03/21 11:25:21;;;;;;;12.52;4.32;;;;;;;;;;5047555;28;20056;-68
2023/03/21 11:27:50;;;;;;;12.23;3.88;;;;;;;;;;5067300;28;20028;-70
2023/03/21 11:30:20;;;;;;;11.00;3.17;;;;;;;;;;5069715;28;20027;-71
2023/03/21 11:32:49;;;;;;;8.88;3.55;;;;;;;;;;5069619;28;20044;-69
2023/03/21 11:35:19;;;;;;;12.65;3.67;;;;;;;;;;5073076;28;20065;-69
2023/03/21 11:37:46;;;;;;;10.55;3.78;;;;;;;;;;5066829;28;21258;-70
2023/03/21 11:40:22;;;;;;;9.13;4.57;;;;;;;;;;5065132;28;20024;-71
2023/03/21 11:42:52;;;;;;;8.63;3.40;;;;;;;;;;5073196;28;20027;-71
2023/03/21 11:45:17;;;;;;;6.47;3.10;;;;;;;;;;5065847;28;20028;-70
2023/03/21 11:47:42;;;;;;;6.90;2.58;;;;;;;;;;5068258;28;20032;-68
2023/03/21 11:50:11;;;;;;;10.35;3.47;;;;;;;;;;5065632;28;20155;-69
2023/03/21 11:52:40;;;;;;;14.20;3.47;;;;;;;;;;5064868;28;20438;-68
2023/03/21 11:55:08;;;;;;;9.45;3.03;;;;;;;;;;5064151;28;20039;-71
2023/03/21 11:57:54;;;;;;;11.20;3.30;;;;;;;;;;5056967;28;20874;-67
2023/03/21 12:00:21;;;;;;;11.50;3.60;;;;;;;;;;5062895;28;20062;-68
2023/03/21 12:02:53;;;;;;;9.38;3.55;;;;;;;;;;5065040;28;20031;-68
2023/03/21 12:05:24;;;;;;;9.63;3.17;;;;;;;;;;5068025;28;20120;-70
2023/03/21 12:07:58;;;;;;;9.43;3.70;;;;;;;;;;5066675;28;20060;-69
2023/03/21 12:10:42;;;;;;;9.15;3.25;;;;;;;;;;5065144;28;20515;-68
2023/03/21 12:13:07;;;;;;;9.40;3.65;;;;;;;;;;5055695;28;20067;-70
2023/03/21 12:15:48;;;;;;;12.00;4.27;;;;;;;;;;5073297;28;20053;-70
2023/03/21 12:18:43;;;;;;;12.05;3.65;;;;;;;;;;5051607;28;20270;-68
2023/03/21 12:21:17;;;;;;;10.07;3.85;;;;;;;;;;5050086;28;20029;-70
2023/03/21 12:23:42;;;;;;;19.42;4.38;;;;;;;;;;5050442;28;20044;-68
2023/03/21 12:26:11;;;;;;;9.32;3.40;;;;;;;;;;5062939;28;20480;-69
2023/03/21 12:28:50;;;;;;;9.93;3.80;;;;;;;;;;5050822;28;20024;-70
2023/03/21 12:31:31;;;;;;;15.40;4.10;;;;;;;;;;5050399;28;20028;-70
2023/03/21 12:33:56;;;;;;;7.53;3.10;;;;;;;;;;5032082;28;20368;-70
2023/03/21 12:36:29;;;;;;;7.87;3.57;;;;;;;;;;5049883;28;20040;-68
2023/03/21 12:39:07;;;;;;;7.28;2.80;;;;;;;;;;5050103;28;20277;-69
2023/03/21 12:41:42;;;;;;;8.27;3.63;;;;;;;;;;5050429;28;20017;-69
2023/03/21 12:44:10;;;;;;;7.95;3.53;;;;;;;;;;5056180;28;20257;-70
2023/03/21 12:46:40;;;;;;;9.20;2.78;;;;;;;;;;5073190;28;20022;-68
2023/03/21 12:49:15;;;;;;;8.85;2.67;;;;;;;;;;5050247;28;20078;-67
2023/03/21 12:51:42;;;;;;;5.55;2.35;;;;;;;;;;5050315;28;20367;-69
2023/03/21 12:54:13;;;;;;;9.10;2.30;;;;;;;;;;5050434;28;20025;-69
2023/03/21 12:56:47;;;;;;;7.68;2.55;;;;;;;;;;5050020;28;20020;-69
2023/03/21 12:59:12;;;;;;;7.57;2.58;;;;;;;;;;5049854;28;20095;-68
2023/03/21 13:01:39;;;;;;;5.03;2.33;;;;;;;;;;5050087;28;20551;-70
2023/03/21 13:04:23;;;;;;;5.78;2.13;;;;;;;;;;5062572;28;20020;-70
2023/03/21 13:06:53;;;;;;;6.45;2.50;;;;;;;;;;5049773;28;20019;-70
2023/03/21 13:09:31;;;;;;;7.18;2.10;;;;;;;;;;5052181;28;20029;-71
2023/03/21 13:11:58;;;;;;;5.65;2.22;;;;;;;;;;5054633;28;20507;-68
2023/03/21 13:14:29;;;;;;;6.80;2.20;;;;;;;;;;5063081;28;20025;-68
2023/03/21 13:17:02;;;;;;;9.05;2.60;;;;;;;;;;5069329;28;20025;-67
2023/03/21 13:19:52;;;;;;;8.75;2.38;;;;;;;;;;5049614;28;20084;-69
2023/03/21 13:22:28;;;;;;;5.45;2.03;;;;;;;;;;5049472;28;20454;-70
2023/03/21 13:24:56;;;;;;;5.30;1.92;;;;;;;;;;5053702;28;20023;-69
2023/03/21 13:27:24;;;;;;;4.80;1.88;;;;;;;;;;5051564;28;20021;-70
2023/03/21 13:29:51;;;;;;;5.10;2.25;;;;;;;;;;5066136;28;20054;-68
2023/03/21 13:32:29;;;;;;;6.95;2.00;;;;;;;;;;5065949;28;20579;-70
2023/03/21 13:34:56;;;;;;;5.45;2.40;;;;;;;;;;5068961;28;20020;-70
2023/03/21 13:37:24;;;;;;;10.40;2.25;;;;;;;;;;5067684;28;20071;-68
2023/03/21 13:39:49;;;;;;;8.10;2.60;;;;;;;;;;5064812;28;20032;-68
2023/03/21 13:42:22;;;;;;;6.13;2.58;;;;;;;;;;5068277;28;20039;-70
2023/03/21 13:44:51;;;;;;;7.07;2.30;;;;;;;;;;5066689;28;20028;-70
2023/03/21 13:47:38;;;;;;;6.60;1.88;;;;;;;;;;5065998;28;20063;-68
2023/03/21 13:50:15;;;;;;;5.50;1.90;;;;;;;;;;5065265;28;20025;-69
2023/03/21 13:52:40;;;;;;;7.80;2.17;;;;;;;;;;5067341;28;20036;-69
2023/03/21 13:55:15;;;;;;;6.72;2.10;;;;;;;;;;5047348;28;20027;-72
2023/03/21 13:57:40;;;;;;;4.20;1.98;;;;;;;;;;5068452;28;20013;-67
2023/03/21 14:00:18;;;;;;;4.70;2.10;;;;;;;;;;5070270;28;20020;-69
2023/03/21 14:02:57;;;;;;;7.55;2.33;;;;;;;;;;5065623;28;20025;-69
2023/03/21 14:05:24;;;;;;;6.35;2.28;;;;;;;;;;5065384;28;20299;-69
2023/03/21 14:07:52;;;;;;;5.15;2.00;;;;;;;;;;5064293;28;20020;-70
2023/03/21 14:10:33;;;;;;;5.55;1.90;;;;;;;;;;5066351;28;20028;-71
2023/03/21 14:12:59;;;;;;;4.20;2.00;;;;;;;;;;5065018;28;20047;-69
2023/03/21 14:15:37;;;;;;;10.48;1.95;;;;;;;;;;5064861;28;20041;-70
2023/03/21 14:18:02;;;;;;;3.75;1.77;;;;;;;;;;5068303;28;20031;-71
2023/03/21 14:20:32;;;;;;;4.53;1.92;;;;;;;;;;5072873;28;20032;-70
2023/03/21 14:22:57;;;;;;;4.18;1.90;;;;;;;;;;5069761;28;20030;-70
2023/03/21 14:25:24;;;;;;;4.78;2.33;;;;;;;;;;5071685;28;21090;-69
2023/03/21 14:27:54;;;;;;;4.85;2.50;;;;;;;;;;5069038;28;20028;-69
2023/03/21 14:30:25;;;;;;;9.52;2.92;;;;;;;;;;5069267;28;20029;-70
2023/03/21 14:33:00;;;;;;;8.18;1.98;;;;;;;;;;5069552;28;20062;-69
2023/03/21 14:35:27;;;;;;;6.78;2.63;;;;;;;;;;5053563;28;20036;-70
2023/03/21 14:37:53;;;;;;;4.95;2.40;;;;;;;;;;5053972;28;20741;-71
2023/03/21 14:40:25;;;;;;;8.38;2.50;;;;;;;;;;5069509;28;20051;-70
2023/03/21 14:42:51;;;;;;;6.28;2.10;;;;;;;;;;5069002;28;20056;-69
2023/03/21 14:45:22;;;;;;;6.57;2.03;;;;;;;;;;5067867;28;20043;-70